Time;durP1;ratioP1;P1;durP2;ratioP2;P2;SDS_P1;SDS_P2;PMS_P1;PMS_P2;Temp;Humidity;BMP_temperature;BMP_pressure;BME280_temperature;BME280_humidity;BME280_pressure;Samples;Min_cycle;Max_cycle;Signal;HPM_P1;HPM_P2
2023/08/27 00:02:26;;;;;;;1.48;1.30;;;22.30;76.20;;;;;;5070465;28;20132;-35
2023/08/27 00:04:53;;;;;;;1.45;1.30;;;;;;;;;;5070214;28;20124;-35
2023/08/27 00:07:20;;;;;;;1.60;1.30;;;;;;;;;;5069971;28;20129;-32
2023/08/27 00:09:47;;;;;;;2.25;1.40;;;20.90;85.40;;;;;;5070561;28;20131;-38
2023/08/27 00:12:14;;;;;;;1.73;1.30;;;;;;;;;;5069834;28;20693;-34
2023/08/27 00:14:41;;;;;;;1.83;1.40;;;21.80;85.90;;;;;;5070383;28;20557;-34
2023/08/27 00:17:08;;;;;;;1.83;1.40;;;21.00;85.70;;;;;;5070213;28;20512;-35
2023/08/27 00:19:36;;;;;;;1.58;1.23;;;21.50;69.20;;;;;;5070697;28;20094;-34
2023/08/27 00:22:03;;;;;;;1.95;1.50;;;21.10;85.50;;;;;;5051677;28;20089;-37
2023/08/27 00:24:31;;;;;;;1.83;1.40;;;20.80;85.40;;;;;;5050264;28;20501;-38
2023/08/27 00:26:58;;;;;;;1.30;1.20;;;;;;;;;;5050262;28;20048;-35
2023/08/27 00:29:25;;;;;;;1.98;1.30;;;20.90;82.60;;;;;;5050250;28;20132;-35
2023/08/27 00:31:51;;;;;;;1.30;1.20;;;20.70;68.70;;;;;;5050316;28;20132;-35
2023/08/27 00:34:18;;;;;;;1.45;1.25;;;21.20;86.00;;;;;;5054230;28;20492;-35
2023/08/27 00:36:46;;;;;;;1.80;1.40;;;21.70;80.10;;;;;;5070096;28;20132;-34
2023/08/27 00:39:13;;;;;;;1.50;1.20;;;20.80;78.00;;;;;;5070314;28;20123;-37
2023/08/27 00:41:40;;;;;;;1.48;1.30;;;21.70;82.00;;;;;;5070059;28;20135;-34
2023/08/27 00:44:06;;;;;;;1.83;1.42;;;22.00;82.30;;;;;;5069902;28;20553;-37
2023/08/27 00:46:33;;;;;;;1.33;1.20;;;21.70;82.70;;;;;;5072099;28;20127;-35
2023/08/27 00:49:00;;;;;;;1.40;1.30;;;21.30;77.10;;;;;;5072778;28;20041;-35
2023/08/27 00:51:27;;;;;;;2.55;1.30;;;20.60;85.60;;;;;;5074021;28;20128;-35
2023/08/27 00:53:55;;;;;;;1.48;1.38;;;21.50;83.60;;;;;;5073298;28;20049;-35
2023/08/27 00:56:21;;;;;;;1.80;1.40;;;21.50;81.60;;;;;;5073466;28;20565;-36
2023/08/27 00:58:48;;;;;;;1.45;1.25;;;;;;;;;;5073713;28;20123;-37
2023/08/27 01:01:15;;;;;;;1.30;1.20;;;;;;;;;;5073328;28;20080;-33
2023/08/27 01:03:42;;;;;;;1.30;1.20;;;22.20;86.20;;;;;;5055862;28;20128;-35
2023/08/27 01:06:09;;;;;;;1.50;1.40;;;20.30;81.60;;;;;;5053700;28;20469;-35
2023/08/27 01:08:40;;;;;;;2.20;1.20;;;21.00;68.90;;;;;;5053180;28;20128;-32
2023/08/27 01:11:14;;;;;;;3.55;1.30;;;20.70;85.50;;;;;;5052935;28;20490;-38
2023/08/27 01:13:44;;;;;;;1.50;1.33;;;20.70;84.90;;;;;;5052760;28;20052;-35
2023/08/27 01:16:11;;;;;;;2.65;1.20;;;;;;;;;;5053473;28;20076;-34
2023/08/27 01:18:38;;;;;;;2.83;1.30;;;;;;;;;;5057496;28;20115;-33
2023/08/27 01:21:20;;;;;;;2.17;1.40;;;21.00;68.90;;;;;;5073117;28;20123;-35
2023/08/27 01:23:47;;;;;;;1.63;1.38;;;;;;;;;;5072880;28;20106;-36
2023/08/27 01:26:16;;;;;;;2.38;1.10;;;20.90;68.80;;;;;;5073291;28;20132;-32
2023/08/27 01:28:46;;;;;;;2.00;1.40;;;22.20;86.30;;;;;;5073171;28;20056;-38
2023/08/27 01:31:18;;;;;;;2.65;1.20;;;20.50;82.30;;;;;;5072469;28;20098;-38
2023/08/27 01:33:45;;;;;;;2.08;1.42;;;20.50;85.70;;;;;;5072816;28;20131;-38
2023/08/27 01:36:12;;;;;;;1.98;1.30;;;20.60;73.40;;;;;;5062660;28;20450;-34
2023/08/27 01:38:40;;;;;;;1.35;1.20;;;20.90;68.90;;;;;;5073017;28;20127;-34
2023/08/27 01:41:07;;;;;;;1.65;1.30;;;20.90;68.80;;;;;;5072546;28;20136;-35
2023/08/27 01:43:34;;;;;;;1.55;1.30;;;;;;;;;;5067440;28;20136;-32
2023/08/27 01:46:03;;;;;;;1.30;1.20;;;20.90;80.70;;;;;;5064794;28;20123;-37
2023/08/27 01:48:30;;;;;;;2.10;1.30;;;21.00;76.10;;;;;;5052716;28;20049;-38
2023/08/27 01:50:56;;;;;;;2.67;1.38;;;21.00;85.90;;;;;;5052802;28;20136;-36
2023/08/27 01:53:23;;;;;;;1.80;1.17;;;21.70;73.00;;;;;;5052126;28;20127;-35
2023/08/27 01:55:51;;;;;;;2.08;1.27;;;21.00;86.00;;;;;;5052318;28;20129;-37
2023/08/27 01:58:18;;;;;;;1.25;1.15;;;;;;;;;;5051261;28;20131;-38
2023/08/27 02:00:45;;;;;;;1.80;1.30;;;;;;;;;;5066749;28;20585;-32
2023/08/27 02:03:12;;;;;;;1.40;1.20;;;19.80;84.90;;;;;;5071896;28;20580;-37
2023/08/27 02:05:39;;;;;;;1.60;1.27;;;20.60;85.30;;;;;;5072118;28;20123;-35
2023/08/27 02:08:06;;;;;;;2.78;1.38;;;20.70;73.50;;;;;;5072379;28;20375;-34
2023/08/27 02:10:33;;;;;;;2.70;1.27;;;;;;;;;;5072004;28;20109;-33
2023/08/27 02:13:01;;;;;;;1.90;1.70;;;20.90;72.80;;;;;;5071462;28;20609;-35
2023/08/27 02:15:28;;;;;;;1.50;1.30;;;21.20;71.20;;;;;;5070519;28;20156;-34
2023/08/27 02:17:55;;;;;;;1.30;1.20;;;;;;;;;;5071865;28;20561;-36
2023/08/27 02:20:22;;;;;;;1.30;1.20;;;;;;;;;;5072181;28;20500;-34
2023/08/27 02:22:48;;;;;;;1.75;1.20;;;20.90;85.50;;;;;;5071716;28;20152;-34
2023/08/27 02:25:15;;;;;;;2.38;1.48;;;;;;;;;;5069295;28;20131;-39
2023/08/27 02:27:42;;;;;;;1.60;1.42;;;20.70;80.80;;;;;;5051841;28;20131;-34
2023/08/27 02:30:11;;;;;;;2.03;1.40;;;21.20;86.10;;;;;;5062646;28;20132;-34
2023/08/27 02:32:38;;;;;;;1.73;1.30;;;;;;;;;;5057465;28;20140;-33
2023/08/27 02:35:06;;;;;;;1.73;1.40;;;20.60;71.60;;;;;;5065265;28;20128;-35
2023/08/27 02:37:32;;;;;;;1.25;1.15;;;21.50;77.40;;;;;;5071039;28;20576;-35
2023/08/27 02:39:59;;;;;;;2.80;1.50;;;;;;;;;;5071366;28;20147;-35
2023/08/27 02:42:27;;;;;;;1.83;1.50;;;;;;;;;;5068329;28;20123;-34
2023/08/27 02:44:53;;;;;;;2.22;1.50;;;21.00;85.90;;;;;;5067580;28;20106;-35
2023/08/27 02:47:21;;;;;;;2.55;1.30;;;19.80;85.00;;;;;;5071463;28;20124;-34
2023/08/27 02:49:49;;;;;;;2.00;1.30;;;21.00;86.00;;;;;;5055285;28;20080;-37
2023/08/27 02:52:16;;;;;;;1.58;1.30;;;20.50;85.40;;;;;;5051396;28;20049;-38
2023/08/27 02:54:43;;;;;;;1.92;1.30;;;20.50;85.10;;;;;;5051227;28;20544;-35
2023/08/27 02:57:10;;;;;;;1.40;1.30;;;20.80;85.70;;;;;;5051198;28;20132;-36
2023/08/27 02:59:37;;;;;;;1.95;1.40;;;;;;;;;;5052329;28;20124;-31
2023/08/27 03:02:04;;;;;;;2.20;1.60;;;;;;;;;;5061690;28;20131;-35
2023/08/27 03:04:32;;;;;;;1.40;1.30;;;20.80;68.70;;;;;;5061546;28;20132;-35
2023/08/27 03:06:59;;;;;;;1.85;1.50;;;;;;;;;;5058803;28;20132;-33
2023/08/27 03:09:26;;;;;;;3.20;1.40;;;20.60;85.80;;;;;;5061317;28;20124;-36
2023/08/27 03:11:53;;;;;;;1.50;1.40;;;;;;;;;;5058594;28;20124;-36
2023/08/27 03:14:20;;;;;;;1.40;1.20;;;;;;;;;;5059432;28;20128;-38
2023/08/27 03:16:47;;;;;;;1.35;1.23;;;20.90;74.20;;;;;;5060135;28;20123;-36
2023/08/27 03:19:14;;;;;;;1.77;1.45;;;20.70;74.00;;;;;;5059257;28;20045;-36
2023/08/27 03:21:42;;;;;;;3.05;1.40;;;20.50;85.30;;;;;;5059352;28;20136;-37
2023/08/27 03:24:09;;;;;;;2.47;1.23;;;21.30;86.00;;;;;;5059487;28;20542;-39
2023/08/27 03:26:36;;;;;;;1.85;1.42;;;20.40;85.60;;;;;;5061087;28;20128;-36
2023/08/27 03:29:02;;;;;;;2.20;1.40;;;20.50;86.30;;;;;;5057444;28;20123;-36
2023/08/27 03:31:29;;;;;;;1.52;1.40;;;21.10;85.50;;;;;;5060792;28;20048;-38
2023/08/27 03:33:57;;;;;;;1.63;1.40;;;;;;;;;;5060668;28;20569;-33
2023/08/27 03:36:24;;;;;;;2.05;1.50;;;20.40;85.50;;;;;;5070330;28;20110;-37
2023/08/27 03:38:52;;;;;;;2.60;1.50;;;20.70;68.50;;;;;;5062104;28;20128;-34
2023/08/27 03:41:18;;;;;;;1.70;1.42;;;20.50;70.70;;;;;;5060728;28;20059;-36
2023/08/27 03:43:45;;;;;;;1.40;1.30;;;19.90;72.30;;;;;;5062334;28;20557;-38
2023/08/27 03:46:12;;;;;;;1.75;1.40;;;20.50;85.30;;;;;;5050779;28;20128;-37
2023/08/27 03:48:39;;;;;;;1.88;1.40;;;;;;;;;;5050491;28;20502;-34
2023/08/27 03:51:06;;;;;;;1.60;1.50;;;;;;;;;;5050046;28;20564;-35
2023/08/27 03:53:33;;;;;;;3.53;1.50;;;;;;;;;;5068614;28;20115;-35
2023/08/27 03:56:04;;;;;;;4.28;1.30;;;20.60;68.60;;;;;;5070678;28;20131;-35
2023/08/27 03:58:31;;;;;;;1.52;1.38;;;;;;;;;;5070637;28;20123;-33
2023/08/27 04:00:58;;;;;;;2.20;1.60;;;20.90;85.60;;;;;;5070442;28;20131;-36
2023/08/27 04:03:24;;;;;;;1.80;1.30;;;20.50;85.40;;;;;;5070186;28;20127;-40
2023/08/27 04:05:51;;;;;;;2.05;1.40;;;;;;;;;;5064646;28;20151;-35
2023/08/27 04:08:18;;;;;;;2.17;1.30;;;;;;;;;;5050304;28;20127;-34
2023/08/27 04:10:49;;;;;;;2.42;1.67;;;20.70;74.30;;;;;;5050582;28;20123;-38
2023/08/27 04:13:17;;;;;;;1.60;1.30;;;20.70;68.60;;;;;;5049992;28;20052;-33
2023/08/27 04:15:45;;;;;;;2.28;1.40;;;;;;;;;;5050292;28;20049;-37
2023/08/27 04:18:11;;;;;;;2.00;1.70;;;20.30;74.70;;;;;;5050601;28;20049;-35
2023/08/27 04:20:38;;;;;;;1.35;1.10;;;21.10;86.10;;;;;;5063105;28;20537;-36
2023/08/27 04:23:05;;;;;;;2.25;1.60;;;20.70;85.80;;;;;;5073565;28;20132;-30
2023/08/27 04:25:32;;;;;;;2.08;1.45;;;;;;;;;;5073987;28;20098;-31
2023/08/27 04:27:59;;;;;;;1.50;1.40;;;;;;;;;;5073956;28;20132;-31
2023/08/27 04:30:27;;;;;;;1.70;1.40;;;20.60;68.60;;;;;;5073744;28;20566;-32
2023/08/27 04:32:54;;;;;;;1.60;1.40;;;21.00;75.50;;;;;;5073330;28;20127;-31
2023/08/27 04:35:21;;;;;;;1.58;1.40;;;19.50;85.00;;;;;;5073192;28;20048;-31
2023/08/27 04:37:47;;;;;;;1.50;1.40;;;21.20;73.50;;;;;;5073236;28;20620;-31
2023/08/27 04:40:14;;;;;;;1.83;1.40;;;21.30;75.50;;;;;;5073776;28;20131;-32
2023/08/27 04:42:41;;;;;;;3.28;1.50;;;20.90;85.70;;;;;;5073364;28;20131;-30
2023/08/27 04:45:09;;;;;;;3.63;1.58;;;20.80;73.00;;;;;;5073566;28;20683;-31
2023/08/27 04:47:37;;;;;;;1.48;1.38;;;20.80;85.90;;;;;;5072872;28;20052;-30
2023/08/27 04:50:06;;;;;;;1.63;1.52;;;20.60;68.60;;;;;;5073685;28;20044;-33
2023/08/27 04:52:33;;;;;;;1.88;1.48;;;19.70;78.60;;;;;;5073390;28;20132;-31
2023/08/27 04:55:00;;;;;;;2.08;1.48;;;20.50;85.80;;;;;;5073354;28;20131;-30
2023/08/27 04:57:27;;;;;;;2.00;1.60;;;20.30;83.50;;;;;;5073299;28;20048;-31
2023/08/27 04:59:54;;;;;;;2.05;1.60;;;20.60;68.60;;;;;;5073534;28;20120;-32
2023/08/27 05:02:21;;;;;;;1.80;1.45;;;20.20;78.40;;;;;;5060964;28;20076;-30
2023/08/27 05:04:49;;;;;;;2.90;1.50;;;21.30;85.90;;;;;;5053234;28;20128;-30
2023/08/27 05:07:16;;;;;;;1.40;1.30;;;19.80;85.10;;;;;;5053259;28;20083;-31
2023/08/27 05:09:45;;;;;;;1.92;1.48;;;20.30;73.00;;;;;;5053341;28;20465;-31
2023/08/27 05:12:12;;;;;;;1.55;1.42;;;20.70;70.90;;;;;;5052789;28;20110;-31
2023/08/27 05:14:39;;;;;;;1.60;1.50;;;20.60;85.90;;;;;;5053172;28;20703;-30
2023/08/27 05:17:06;;;;;;;1.73;1.55;;;;;;;;;;5070905;28;20048;-34
2023/08/27 05:19:33;;;;;;;1.95;1.40;;;;;;;;;;5073055;28;20568;-30
2023/08/27 05:22:02;;;;;;;1.67;1.40;;;19.60;84.90;;;;;;5073045;28;20101;-31
2023/08/27 05:24:29;;;;;;;1.92;1.40;;;19.80;80.00;;;;;;5072973;28;20131;-31
2023/08/27 05:26:56;;;;;;;2.13;1.50;;;;;;;;;;5072799;28;20079;-33
2023/08/27 05:29:22;;;;;;;1.55;1.45;;;21.50;86.00;;;;;;5071960;28;20131;-31
2023/08/27 05:31:49;;;;;;;1.77;1.30;;;20.50;80.30;;;;;;5072461;28;20044;-32
2023/08/27 05:34:16;;;;;;;1.70;1.40;;;20.40;78.10;;;;;;5072447;28;20127;-34
2023/08/27 05:36:42;;;;;;;1.55;1.42;;;20.30;80.40;;;;;;5072341;28;20127;-31
2023/08/27 05:39:11;;;;;;;2.85;1.42;;;20.20;85.30;;;;;;5072561;28;20144;-30
2023/08/27 05:41:38;;;;;;;1.73;1.30;;;;;;;;;;5072369;28;20135;-32
2023/08/27 05:44:05;;;;;;;2.15;1.35;;;20.90;70.80;;;;;;5071743;28;20128;-31
2023/08/27 05:46:31;;;;;;;1.50;1.40;;;20.60;85.80;;;;;;5072833;28;20139;-31
2023/08/27 05:48:58;;;;;;;2.53;1.45;;;;;;;;;;5072365;28;20044;-32
2023/08/27 05:51:25;;;;;;;1.65;1.40;;;20.50;82.80;;;;;;5072639;28;20080;-30
2023/08/27 05:53:52;;;;;;;2.67;1.50;;;;;;;;;;5072199;28;20080;-33
2023/08/27 05:56:20;;;;;;;1.77;1.40;;;20.40;85.90;;;;;;5072190;28;20139;-30
2023/08/27 05:58:47;;;;;;;2.83;1.60;;;20.20;85.50;;;;;;5054709;28;20133;-32
2023/08/27 06:01:15;;;;;;;1.80;1.60;;;20.30;85.50;;;;;;5052485;28;20519;-31
2023/08/27 06:03:42;;;;;;;1.88;1.55;;;;;;;;;;5052031;28;20099;-33
2023/08/27 06:06:09;;;;;;;1.73;1.50;;;20.30;84.50;;;;;;5052396;28;20091;-36
2023/08/27 06:08:36;;;;;;;1.75;1.50;;;20.60;86.00;;;;;;5052028;28;20045;-37
2023/08/27 06:11:04;;;;;;;1.85;1.50;;;;;;;;;;5055406;28;20120;-35
2023/08/27 06:13:32;;;;;;;2.17;1.55;;;20.30;75.50;;;;;;5071307;28;20044;-36
2023/08/27 06:15:58;;;;;;;1.65;1.52;;;21.40;86.40;;;;;;5072186;28;20123;-35
2023/08/27 06:18:25;;;;;;;1.70;1.50;;;19.80;71.50;;;;;;5071991;28;20131;-32
2023/08/27 06:20:52;;;;;;;1.58;1.45;;;;;;;;;;5071817;28;20056;-37
2023/08/27 06:23:20;;;;;;;1.60;1.42;;;;;;;;;;5071730;28;20127;-38
2023/08/27 06:25:46;;;;;;;1.73;1.48;;;20.40;85.80;;;;;;5070743;28;20079;-37
2023/08/27 06:28:15;;;;;;;2.25;1.58;;;20.30;85.70;;;;;;5071433;28;20788;-35
2023/08/27 06:30:43;;;;;;;2.15;1.60;;;20.30;68.70;;;;;;5071463;28;20489;-36
2023/08/27 06:33:11;;;;;;;2.00;1.52;;;;;;;;;;5068136;28;20125;-36
2023/08/27 06:35:38;;;;;;;1.65;1.40;;;;;;;;;;5059315;28;20055;-36
2023/08/27 06:38:05;;;;;;;2.05;1.50;;;20.80;69.50;;;;;;5060084;28;20124;-38
2023/08/27 06:40:32;;;;;;;2.10;1.63;;;20.70;85.90;;;;;;5052589;28;20369;-37
2023/08/27 06:42:59;;;;;;;2.10;1.50;;;20.30;70.60;;;;;;5053619;28;20053;-36
2023/08/27 06:45:27;;;;;;;1.95;1.50;;;;;;;;;;5071342;28;20131;-34
2023/08/27 06:47:55;;;;;;;2.05;1.63;;;20.40;75.90;;;;;;5068141;28;20155;-37
2023/08/27 06:50:22;;;;;;;1.92;1.60;;;;;;;;;;5051334;28;20059;-33
2023/08/27 06:52:49;;;;;;;2.28;1.52;;;20.50;79.80;;;;;;5058746;28;20131;-40
2023/08/27 06:55:16;;;;;;;1.80;1.50;;;;;;;;;;5068430;28;20564;-34
2023/08/27 06:57:44;;;;;;;1.73;1.35;;;;;;;;;;5066180;28;20131;-37
2023/08/27 07:00:11;;;;;;;3.58;1.60;;;20.90;68.80;;;;;;5069405;28;20561;-36
2023/08/27 07:02:38;;;;;;;7.75;2.42;;;;;;;;;;5055536;28;20048;-34
2023/08/27 07:05:08;;;;;;;2.00;1.50;;;20.20;80.50;;;;;;5067062;28;20136;-35
2023/08/27 07:07:36;;;;;;;2.75;1.55;;;20.60;85.60;;;;;;5067056;28;20486;-37
2023/08/27 07:10:04;;;;;;;2.45;1.77;;;20.20;70.20;;;;;;5060560;28;20094;-39
2023/08/27 07:12:33;;;;;;;1.85;1.52;;;;;;;;;;5058219;28;20053;-33
2023/08/27 07:14:59;;;;;;;2.00;1.42;;;20.00;85.60;;;;;;5060958;28;20044;-33
2023/08/27 07:17:26;;;;;;;1.60;1.50;;;20.20;85.40;;;;;;5060764;28;20155;-39
2023/08/27 07:19:53;;;;;;;2.35;1.70;;;19.80;73.10;;;;;;5059265;28;20053;-35
2023/08/27 07:22:21;;;;;;;2.45;1.60;;;21.10;86.20;;;;;;5058803;28;20128;-35
2023/08/27 07:24:48;;;;;;;2.33;1.55;;;;;;;;;;5060724;28;20127;-35
2023/08/27 07:27:15;;;;;;;2.58;1.63;;;;;;;;;;5064682;28;20498;-33
2023/08/27 07:29:42;;;;;;;2.50;1.73;;;21.60;86.00;;;;;;5070575;28;20514;-40
2023/08/27 07:32:09;;;;;;;2.55;1.48;;;;;;;;;;5070639;28;20131;-35
2023/08/27 07:34:36;;;;;;;2.33;1.63;;;20.30;77.40;;;;;;5070201;28;20131;-37
2023/08/27 07:37:03;;;;;;;2.80;1.50;;;;;;;;;;5056571;28;20485;-39
2023/08/27 07:39:31;;;;;;;1.88;1.30;;;20.50;68.60;;;;;;5064812;28;20054;-34
2023/08/27 07:41:58;;;;;;;2.10;1.60;;;20.20;76.40;;;;;;5070481;28;20131;-36
2023/08/27 07:44:25;;;;;;;1.83;1.40;;;20.90;72.50;;;;;;5070570;28;20466;-35
2023/08/27 07:46:52;;;;;;;1.90;1.30;;;;;;;;;;5070698;28;20049;-36
2023/08/27 07:49:19;;;;;;;2.28;1.50;;;;;;;;;;5062658;28;20132;-34
2023/08/27 07:51:46;;;;;;;1.45;1.30;;;;;;;;;;5050622;28;20127;-37
2023/08/27 07:54:13;;;;;;;1.83;1.40;;;;;;;;;;5050571;28;20053;-36
2023/08/27 07:56:41;;;;;;;1.90;1.30;;;20.30;69.10;;;;;;5054732;28;20080;-35
2023/08/27 07:59:09;;;;;;;2.95;1.50;;;;;;;;;;5063807;28;20144;-35
2023/08/27 08:01:35;;;;;;;3.38;1.30;;;20.60;85.60;;;;;;5074225;28;20044;-40
2023/08/27 08:04:03;;;;;;;3.50;1.40;;;;;;;;;;5074087;28;20058;-32
2023/08/27 08:06:29;;;;;;;2.35;1.40;;;21.00;85.90;;;;;;5074630;28;20052;-38
2023/08/27 08:08:56;;;;;;;2.80;1.30;;;21.10;79.50;;;;;;5074426;28;20135;-37
2023/08/27 08:11:23;;;;;;;1.52;1.10;;;20.50;73.90;;;;;;5074394;28;20128;-38
2023/08/27 08:13:51;;;;;;;2.25;1.30;;;20.70;68.60;;;;;;5058153;28;20136;-40
2023/08/27 08:16:17;;;;;;;2.08;1.30;;;20.20;73.60;;;;;;5068859;28;20132;-36
2023/08/27 08:18:44;;;;;;;2.72;1.30;;;19.60;79.90;;;;;;5074168;28;20135;-39
2023/08/27 08:21:11;;;;;;;2.30;1.20;;;20.40;71.20;;;;;;5074288;28;20056;-37
2023/08/27 08:23:38;;;;;;;1.95;1.02;;;;;;;;;;5073898;28;20131;-39
2023/08/27 08:26:06;;;;;;;1.90;1.15;;;;;;;;;;5072907;28;20052;-36
2023/08/27 08:28:34;;;;;;;1.30;1.20;;;21.20;86.10;;;;;;5053630;28;20053;-40
2023/08/27 08:31:03;;;;;;;2.45;1.40;;;20.80;68.40;;;;;;5054025;28;20434;-33
2023/08/27 08:33:29;;;;;;;3.45;1.30;;;20.70;79.40;;;;;;5053657;28;20074;-37
2023/08/27 08:35:56;;;;;;;3.13;1.33;;;21.20;85.50;;;;;;5054334;28;20131;-37
2023/08/27 08:38:23;;;;;;;1.25;1.10;;;21.40;85.70;;;;;;5073700;28;20131;-40
2023/08/27 08:40:50;;;;;;;2.15;1.30;;;21.20;71.60;;;;;;5072530;28;20140;-36
2023/08/27 08:43:20;;;;;;;1.20;1.10;;;21.00;85.40;;;;;;5073466;28;20418;-37
2023/08/27 08:45:52;;;;;;;2.40;1.33;;;21.00;68.10;;;;;;5073762;28;20123;-36
2023/08/27 08:48:22;;;;;;;1.45;1.20;;;20.70;84.80;;;;;;5069321;28;20141;-39
2023/08/27 08:50:48;;;;;;;1.50;1.10;;;20.80;85.10;;;;;;5064781;28;20047;-39
2023/08/27 08:53:16;;;;;;;2.40;1.10;;;;;;;;;;5053211;28;20132;-36
2023/08/27 08:55:43;;;;;;;1.70;1.05;;;21.20;67.80;;;;;;5053397;28;20131;-36
2023/08/27 08:58:10;;;;;;;1.85;1.10;;;20.70;84.40;;;;;;5053581;28;20709;-35
2023/08/27 09:00:37;;;;;;;1.20;1.10;;;;;;;;;;5053432;28;20120;-36
2023/08/27 09:03:04;;;;;;;2.88;1.20;;;;;;;;;;5052897;28;20136;-37
2023/08/27 09:05:33;;;;;;;1.45;1.02;;;21.50;71.80;;;;;;5053382;28;20049;-36
2023/08/27 09:08:00;;;;;;;2.20;1.00;;;20.60;68.10;;;;;;5051828;28;20048;-37
2023/08/27 09:10:27;;;;;;;2.28;1.27;;;22.40;84.80;;;;;;5052031;28;20044;-37
2023/08/27 09:12:56;;;;;;;1.25;1.05;;;;;;;;;;5057389;28;20072;-32
2023/08/27 09:15:23;;;;;;;1.10;1.00;;;;;;;;;;5066823;28;20444;-36
2023/08/27 09:17:49;;;;;;;2.10;1.00;;;21.30;83.60;;;;;;5061617;28;20120;-38
2023/08/27 09:20:17;;;;;;;2.08;0.95;;;;;;;;;;5061113;28;20139;-40
2023/08/27 09:22:45;;;;;;;1.52;1.00;;;21.70;66.70;;;;;;5062977;28;20115;-36
2023/08/27 09:25:11;;;;;;;1.10;0.90;;;21.40;83.30;;;;;;5063324;28;20207;-38
2023/08/27 09:27:38;;;;;;;1.05;0.95;;;20.70;82.90;;;;;;5061021;28;20136;-40
2023/08/27 09:30:06;;;;;;;2.38;1.00;;;21.80;66.60;;;;;;5063519;28;20144;-35
2023/08/27 09:32:33;;;;;;;1.38;0.85;;;;;;;;;;5062532;28;20060;-38
2023/08/27 09:35:00;;;;;;;1.10;0.73;;;20.70;82.70;;;;;;5063667;28;20448;-35
2023/08/27 09:37:27;;;;;;;2.25;0.93;;;22.10;83.70;;;;;;5063173;28;20465;-39
2023/08/27 09:39:55;;;;;;;3.03;1.00;;;21.80;83.40;;;;;;5063876;28;20048;-36
2023/08/27 09:42:22;;;;;;;1.50;1.00;;;21.90;82.90;;;;;;5058724;28;20139;-36
2023/08/27 09:44:49;;;;;;;1.73;1.00;;;20.80;82.40;;;;;;5059036;28;20127;-39
2023/08/27 09:47:16;;;;;;;0.85;0.80;;;21.60;72.10;;;;;;5057419;28;20045;-37
2023/08/27 09:49:44;;;;;;;1.70;1.00;;;;;;;;;;5063301;28;20143;-34
2023/08/27 09:52:11;;;;;;;2.13;0.98;;;22.10;68.40;;;;;;5060723;28;20461;-35
2023/08/27 09:54:38;;;;;;;3.92;0.90;;;;;;;;;;5072577;28;20136;-35
2023/08/27 09:57:06;;;;;;;0.95;0.85;;;23.30;83.70;;;;;;5072220;28;20053;-36
2023/08/27 09:59:33;;;;;;;1.35;1.00;;;22.40;81.30;;;;;;5072246;28;20151;-38
2023/08/27 10:02:00;;;;;;;1.00;0.82;;;;;;;;;;5072011;28;20481;-36
2023/08/27 10:04:26;;;;;;;1.63;1.10;;;22.30;83.80;;;;;;5063612;28;20485;-36
2023/08/27 10:06:53;;;;;;;0.88;0.80;;;;;;;;;;5069155;28;20151;-35
2023/08/27 10:09:21;;;;;;;1.50;0.93;;;;;;;;;;5067269;28;20076;-33
2023/08/27 10:11:47;;;;;;;1.10;0.77;;;21.80;68.90;;;;;;5071780;28;20127;-36
2023/08/27 10:14:16;;;;;;;1.60;1.15;;;22.10;66.00;;;;;;5060722;28;20087;-34
2023/08/27 10:16:43;;;;;;;2.20;1.10;;;22.00;77.90;;;;;;5055219;28;20056;-31
2023/08/27 10:19:10;;;;;;;2.67;1.23;;;;;;;;;;5064767;28;20155;-32
2023/08/27 10:21:37;;;;;;;1.77;0.90;;;;;;;;;;5063952;28;20123;-35
2023/08/27 10:24:04;;;;;;;0.95;0.80;;;21.90;82.50;;;;;;5071310;28;20128;-30
2023/08/27 10:26:31;;;;;;;2.60;0.90;;;;;;;;;;5071744;28;20141;-35
2023/08/27 10:28:58;;;;;;;1.67;1.00;;;22.70;83.80;;;;;;5071738;28;20076;-30
2023/08/27 10:31:26;;;;;;;1.45;1.00;;;22.10;66.00;;;;;;5070067;28;20494;-31
2023/08/27 10:33:53;;;;;;;2.38;1.13;;;;;;;;;;5055515;28;20056;-36
2023/08/27 10:36:21;;;;;;;2.42;1.13;;;21.70;82.60;;;;;;5055325;28;20123;-30
2023/08/27 10:38:48;;;;;;;3.45;1.20;;;21.60;82.50;;;;;;5071763;28;20159;-31
2023/08/27 10:41:16;;;;;;;5.10;1.17;;;22.00;66.10;;;;;;5071269;28;20152;-31
2023/08/27 10:43:43;;;;;;;1.70;1.08;;;21.80;82.80;;;;;;5071386;28;20433;-30
2023/08/27 10:46:10;;;;;;;2.70;1.33;;;22.00;66.10;;;;;;5070725;28;20067;-31
2023/08/27 10:48:38;;;;;;;2.50;1.20;;;22.90;83.80;;;;;;5071349;28;20405;-30
2023/08/27 10:51:10;;;;;;;1.92;1.13;;;22.00;66.30;;;;;;5071113;28;20493;-34
2023/08/27 10:53:39;;;;;;;4.10;1.45;;;21.80;82.80;;;;;;5070879;28;20056;-31
2023/08/27 10:56:22;;;;;;;2.08;1.23;;;22.00;84.00;;;;;;5071499;28;20045;-34
2023/08/27 10:58:48;;;;;;;1.40;1.02;;;22.10;71.00;;;;;;5062250;28;20163;-31
2023/08/27 11:01:18;;;;;;;2.42;1.20;;;;;;;;;;5051331;28;20163;-33
2023/08/27 11:03:57;;;;;;;2.15;1.00;;;22.40;84.20;;;;;;5050786;28;20049;-30
2023/08/27 11:06:34;;;;;;;2.17;1.65;;;22.00;66.20;;;;;;5063583;28;20414;-38
2023/08/27 11:09:00;;;;;;;1.73;1.00;;;22.00;81.60;;;;;;5070890;28;20048;-30
2023/08/27 11:11:27;;;;;;;2.03;1.20;;;21.90;82.90;;;;;;5070931;28;20585;-30
2023/08/27 11:14:05;;;;;;;2.30;1.10;;;23.80;66.90;;;;;;5069808;28;20135;-34
2023/08/27 11:16:32;;;;;;;2.45;1.38;;;;;;;;;;5070938;28;20140;-36
2023/08/27 11:19:00;;;;;;;2.17;1.17;;;21.50;82.00;;;;;;5070889;28;20127;-30
2023/08/27 11:21:43;;;;;;;1.92;1.10;;;22.00;75.10;;;;;;5070332;28;20143;-31
2023/08/27 11:24:14;;;;;;;2.00;1.20;;;21.90;68.40;;;;;;5070402;28;20131;-30
2023/08/27 11:26:41;;;;;;;1.77;1.10;;;22.10;83.10;;;;;;5062316;28;20053;-29
2023/08/27 11:29:08;;;;;;;1.83;1.08;;;22.80;82.70;;;;;;5050673;28;20131;-31
2023/08/27 11:31:35;;;;;;;2.47;1.10;;;22.20;75.40;;;;;;5050332;28;20131;-31
2023/08/27 11:34:04;;;;;;;3.03;1.30;;;22.00;83.10;;;;;;5050193;28;20479;-30
2023/08/27 11:36:31;;;;;;;2.47;1.30;;;22.00;73.00;;;;;;5055946;28;20040;-37
2023/08/27 11:38:59;;;;;;;1.48;1.10;;;;;;;;;;5070593;28;20475;-36
2023/08/27 11:41:25;;;;;;;2.30;1.23;;;22.00;81.90;;;;;;5069247;28;20055;-38
2023/08/27 11:43:55;;;;;;;1.90;1.20;;;;;;;;;;5049958;28;20136;-34
2023/08/27 11:46:21;;;;;;;3.30;1.40;;;22.40;72.50;;;;;;5065681;28;20540;-35
2023/08/27 11:48:49;;;;;;;3.42;1.20;;;;;;;;;;5070774;28;20136;-36
2023/08/27 11:51:17;;;;;;;2.15;1.10;;;22.00;66.20;;;;;;5070359;28;20048;-36
2023/08/27 11:53:44;;;;;;;1.40;1.17;;;;;;;;;;5050816;28;20135;-35
2023/08/27 11:56:12;;;;;;;2.28;1.30;;;21.80;83.30;;;;;;5050444;28;20136;-36
2023/08/27 11:58:39;;;;;;;1.55;1.10;;;21.90;74.00;;;;;;5050890;28;20132;-36
2023/08/27 12:01:06;;;;;;;1.42;1.10;;;;;;;;;;5050421;28;20406;-34
2023/08/27 12:03:33;;;;;;;1.60;1.10;;;22.40;79.80;;;;;;5062883;28;20310;-36
2023/08/27 12:06:01;;;;;;;1.63;1.20;;;;;;;;;;5068461;28;20048;-36
2023/08/27 12:08:33;;;;;;;4.18;1.35;;;21.40;83.50;;;;;;5070654;28;20156;-36
2023/08/27 12:11:00;;;;;;;1.40;1.10;;;;;;;;;;5070103;28;20131;-36
2023/08/27 12:13:27;;;;;;;2.63;1.60;;;21.90;69.60;;;;;;5064830;28;20049;-34
2023/08/27 12:15:54;;;;;;;1.55;1.13;;;;;;;;;;5070069;28;20160;-33
2023/08/27 12:18:21;;;;;;;2.30;1.23;;;21.50;75.20;;;;;;5070433;28;20053;-37
2023/08/27 12:20:49;;;;;;;2.20;1.10;;;21.70;66.50;;;;;;5070186;28;20550;-35
2023/08/27 12:23:16;;;;;;;3.15;1.45;;;21.50;83.20;;;;;;5055267;28;20538;-35
2023/08/27 12:25:47;;;;;;;2.30;1.27;;;21.70;66.40;;;;;;5050034;28;20138;-34
2023/08/27 12:28:14;;;;;;;2.60;1.33;;;;;;;;;;5049766;28;20120;-34
2023/08/27 12:30:46;;;;;;;1.75;1.20;;;20.70;82.50;;;;;;5050406;28;20128;-36
2023/08/27 12:33:13;;;;;;;1.58;1.20;;;22.20;84.20;;;;;;5063974;28;20055;-37
2023/08/27 12:35:39;;;;;;;1.55;1.23;;;22.00;84.00;;;;;;5070281;28;20131;-36
2023/08/27 12:38:07;;;;;;;1.98;1.20;;;;;;;;;;5069243;28;20139;-36
2023/08/27 12:40:33;;;;;;;1.40;1.20;;;21.30;72.50;;;;;;5069608;28;20102;-34
2023/08/27 12:43:01;;;;;;;1.90;1.20;;;21.50;83.90;;;;;;5071812;28;20053;-36
2023/08/27 12:45:28;;;;;;;3.72;1.30;;;21.20;83.00;;;;;;5074159;28;20136;-36
2023/08/27 12:47:55;;;;;;;2.08;1.30;;;;;;;;;;5073743;28;20139;-35
2023/08/27 12:50:22;;;;;;;1.35;1.10;;;21.10;82.90;;;;;;5073745;28;20058;-37
2023/08/27 12:52:49;;;;;;;3.35;1.30;;;;;;;;;;5062604;28;20317;-36
2023/08/27 12:55:19;;;;;;;3.47;1.52;;;21.50;83.10;;;;;;5053588;28;20053;-34
2023/08/27 12:57:46;;;;;;;3.70;1.20;;;21.40;81.30;;;;;;5056870;28;20040;-37
2023/08/27 13:00:14;;;;;;;1.58;1.20;;;22.10;66.80;;;;;;5073887;28;20084;-37
2023/08/27 13:02:41;;;;;;;2.47;1.33;;;22.20;83.10;;;;;;5072694;28;20132;-39
2023/08/27 13:05:09;;;;;;;2.50;1.40;;;;;;;;;;5073180;28;20131;-35
2023/08/27 13:07:37;;;;;;;1.65;1.20;;;21.20;82.40;;;;;;5073116;28;20051;-34
2023/08/27 13:10:05;;;;;;;2.03;1.30;;;;;;;;;;5073499;28;20044;-31
2023/08/27 13:12:32;;;;;;;3.13;1.27;;;;;;;;;;5065089;28;20554;-30
2023/08/27 13:14:58;;;;;;;1.40;1.00;;;20.80;83.30;;;;;;5053505;28;20495;-30
2023/08/27 13:17:26;;;;;;;2.40;1.40;;;21.20;66.20;;;;;;5053142;28;20093;-31
2023/08/27 13:19:53;;;;;;;1.98;1.10;;;20.60;82.70;;;;;;5052942;28;20135;-30